createdAt,value
2022-09-25T00:00:59.084Z,29.67
2022-09-25T00:03:28.793Z,30.07
2022-09-25T00:06:07.858Z,27.07
2022-09-25T00:08:36.202Z,27.93
2022-09-25T00:11:08.691Z,26.13
2022-09-25T00:13:36.207Z,29.50
2022-09-25T00:16:04.037Z,30.43
2022-09-25T00:18:49.658Z,27.50
2022-09-25T00:21:18.007Z,27.87
2022-09-25T00:23:45.421Z,29.93
2022-09-25T00:26:14.898Z,29.53
2022-09-25T00:28:43.137Z,31.03
2022-09-25T00:31:13.117Z,30.40
2022-09-25T00:33:40.176Z,29.97
2022-09-25T00:36:10.258Z,28.33
2022-09-25T00:38:38.603Z,32.07
2022-09-25T00:41:07.807Z,28.27
2022-09-25T00:43:45.290Z,26.43
2022-09-25T00:46:18.532Z,27.43
2022-09-25T00:48:56.310Z,26.97
2022-09-25T00:51:29.581Z,27.90
2022-09-25T00:54:03.845Z,28.93
2022-09-25T00:56:37.970Z,27.13
2022-09-25T00:59:07.197Z,26.10
2022-09-25T01:01:34.335Z,36.07
2022-09-25T01:04:01.603Z,27.60
2022-09-25T01:06:30.362Z,29.03
2022-09-25T01:08:58.002Z,26.80
2022-09-25T01:11:24.775Z,28.50
2022-09-25T01:13:55.368Z,28.53
2022-09-25T01:16:34.374Z,24.20
2022-09-25T01:19:25.895Z,25.87
2022-09-25T01:21:54.579Z,26.50
2022-09-25T01:24:52.279Z,26.60
2022-09-25T01:27:40.805Z,27.43
2022-09-25T01:30:19.290Z,25.50
2022-09-25T01:32:56.888Z,27.27
2022-09-25T01:35:41.853Z,22.27
2022-09-25T01:38:31.249Z,24.10
2022-09-25T01:41:33.303Z,22.63
2022-09-25T01:44:06.595Z,26.07
2022-09-25T01:46:43.141Z,26.10
2022-09-25T01:49:18.976Z,24.63
2022-09-25T01:51:52.838Z,23.30
2022-09-25T01:54:32.651Z,29.37
2022-09-25T01:57:07.916Z,26.63
2022-09-25T01:59:34.616Z,24.20
2022-09-25T02:02:05.861Z,24.33
2022-09-25T02:04:37.375Z,25.13
2022-09-25T02:07:08.875Z,26.27
2022-09-25T02:09:49.736Z,24.43
2022-09-25T02:12:23.360Z,22.17
2022-09-25T02:14:58.239Z,24.83
2022-09-25T02:18:06.923Z,27.70
2022-09-25T02:20:36.556Z,20.50
2022-09-25T02:23:09.042Z,27.57
2022-09-25T02:25:41.136Z,23.93
2022-09-25T02:28:08.344Z,22.30
2022-09-25T02:30:36.341Z,22.50
2022-09-25T02:33:04.268Z,23.40
2022-09-25T02:35:32.672Z,24.13
2022-09-25T02:38:00.792Z,23.67
2022-09-25T02:40:37.662Z,25.50
2022-09-25T02:43:21.558Z,26.23
2022-09-25T02:46:00.670Z,27.07
2022-09-25T02:49:00.420Z,25.83
2022-09-25T02:51:42.045Z,28.17
2022-09-25T02:54:21.031Z,30.20
2022-09-25T02:57:04.801Z,25.23
2022-09-25T02:59:38.711Z,29.77
2022-09-25T03:02:06.637Z,25.57
2022-09-25T03:04:35.589Z,28.73
2022-09-25T03:07:03.178Z,33.23
2022-09-25T03:09:34.877Z,24.47
2022-09-25T03:12:05.067Z,25.07
2022-09-25T03:14:32.633Z,24.23
2022-09-25T03:17:04.751Z,25.70
2022-09-25T03:19:34.421Z,24.10
2022-09-25T03:22:02.850Z,24.50
2022-09-25T03:24:29.901Z,23.97
2022-09-25T03:26:56.961Z,21.40
2022-09-25T03:29:23.842Z,23.03
2022-09-25T03:31:52.007Z,23.57
2022-09-25T03:34:19.601Z,24.60
2022-09-25T03:36:48.526Z,22.67
2022-09-25T03:39:18.031Z,24.97
2022-09-25T03:41:45.667Z,25.73
2022-09-25T03:44:12.898Z,25.23
2022-09-25T03:46:39.982Z,24.37
2022-09-25T03:49:07.186Z,23.33
2022-09-25T03:51:34.257Z,21.83
2022-09-25T03:54:01.192Z,23.03
2022-09-25T03:56:29.730Z,23.57
2022-09-25T03:58:57.512Z,21.97
2022-09-25T04:01:25.517Z,23.93
2022-09-25T04:03:52.965Z,24.23
2022-09-25T04:06:24.433Z,26.47
2022-09-25T04:08:53.146Z,23.53
2022-09-25T04:11:22.036Z,22.87
2022-09-25T04:13:48.962Z,24.43
2022-09-25T04:16:17.544Z,25.30
2022-09-25T04:18:44.688Z,21.90
2022-09-25T04:21:13.460Z,25.03
2022-09-25T04:23:40.911Z,21.70
2022-09-25T04:26:09.105Z,23.23
2022-09-25T04:28:36.460Z,23.30
2022-09-25T04:31:04.305Z,22.20
2022-09-25T04:33:47.557Z,23.77
2022-09-25T04:36:19.254Z,25.10
2022-09-25T04:38:48.068Z,20.17
2022-09-25T04:41:20.312Z,23.80
2022-09-25T04:43:48.507Z,22.30
2022-09-25T04:46:21.503Z,20.77
2022-09-25T04:48:49.911Z,21.10
2022-09-25T04:51:16.842Z,23.40
2022-09-25T04:53:43.607Z,21.47
2022-09-25T04:56:15.811Z,21.73
2022-09-25T04:58:47.995Z,24.03
2022-09-25T05:01:17.364Z,22.13
2022-09-25T05:03:44.311Z,19.60
2022-09-25T05:06:11.374Z,21.57
2022-09-25T05:08:38.283Z,20.30
2022-09-25T05:11:05.109Z,23.23
2022-09-25T05:13:31.901Z,21.50
2022-09-25T05:15:58.839Z,25.30
2022-09-25T05:18:26.601Z,22.77
2022-09-25T05:20:54.324Z,23.27
2022-09-25T05:23:21.958Z,21.00
2022-09-25T05:26:00.689Z,24.00
2022-09-25T05:28:28.544Z,24.43
2022-09-25T05:31:01.519Z,27.87
2022-09-25T05:33:28.444Z,24.63
2022-09-25T05:35:55.348Z,27.20
2022-09-25T05:38:22.138Z,25.93
2022-09-25T05:40:49.064Z,27.33
2022-09-25T05:43:19.311Z,26.43
2022-09-25T05:45:54.245Z,24.33
2022-09-25T05:48:21.202Z,31.77
2022-09-25T05:50:55.689Z,35.90
2022-09-25T05:53:23.342Z,41.07
2022-09-25T05:55:50.957Z,37.43
2022-09-25T05:58:18.070Z,34.90
2022-09-25T06:00:45.393Z,38.63
2022-09-25T06:03:13.250Z,30.90
2022-09-25T06:05:40.667Z,32.23
2022-09-25T06:08:08.602Z,33.67
2022-09-25T06:10:35.776Z,31.73
2022-09-25T06:13:06.848Z,30.00
2022-09-25T06:15:38.672Z,25.30
2022-09-25T06:18:06.614Z,24.10
2022-09-25T06:20:33.948Z,24.27
2022-09-25T06:23:01.338Z,23.77
2022-09-25T06:25:32.556Z,24.33
2022-09-25T06:28:01.045Z,26.27
2022-09-25T06:30:34.398Z,28.00
2022-09-25T06:33:03.481Z,27.20
2022-09-25T06:35:30.370Z,31.43
2022-09-25T06:37:59.161Z,32.53
2022-09-25T06:40:27.937Z,32.27
2022-09-25T06:42:57.503Z,30.10
2022-09-25T06:45:26.788Z,30.73
2022-09-25T06:47:57.770Z,28.07
2022-09-25T06:50:31.926Z,27.87
2022-09-25T06:52:59.973Z,29.67
2022-09-25T06:55:32.398Z,26.03
2022-09-25T06:57:59.291Z,31.43
2022-09-25T07:00:26.174Z,25.10
2022-09-25T07:03:11.750Z,26.67
2022-09-25T07:05:38.932Z,26.43
2022-09-25T07:08:05.705Z,25.57
2022-09-25T07:10:33.455Z,25.67
2022-09-25T07:13:00.446Z,25.20
2022-09-25T07:15:27.505Z,28.87
2022-09-25T07:17:54.284Z,27.27
2022-09-25T07:20:21.796Z,27.50
2022-09-25T07:22:48.683Z,24.63
2022-09-25T07:25:15.654Z,24.53
2022-09-25T07:27:42.625Z,29.23
2022-09-25T07:30:10.193Z,21.33
2022-09-25T07:32:37.330Z,25.20
2022-09-25T07:35:04.380Z,22.97
2022-09-25T07:37:31.402Z,26.53
2022-09-25T07:39:58.175Z,22.77
2022-09-25T07:42:25.165Z,27.57
2022-09-25T07:44:52.502Z,28.57
2022-09-25T07:47:20.653Z,22.73
2022-09-25T07:49:47.667Z,24.53
2022-09-25T07:52:16.443Z,24.43
2022-09-25T07:54:43.879Z,26.80
2022-09-25T07:57:10.813Z,26.47
2022-09-25T07:59:37.590Z,24.50
2022-09-25T08:02:05.292Z,27.03
2022-09-25T08:04:32.284Z,26.70
2022-09-25T08:07:00.161Z,26.07
2022-09-25T08:09:26.937Z,24.20
2022-09-25T08:11:53.732Z,26.33
2022-09-25T08:14:25.883Z,25.07
2022-09-25T08:16:55.904Z,27.43
2022-09-25T08:19:23.531Z,23.47
2022-09-25T08:21:50.586Z,25.67
2022-09-25T08:24:18.480Z,24.17
2022-09-25T08:26:47.452Z,24.80
2022-09-25T08:29:15.514Z,26.50
2022-09-25T08:31:42.614Z,23.83
2022-09-25T08:34:38.877Z,24.67
2022-09-25T08:36:58.296Z,26.03
2022-09-25T08:39:25.414Z,25.10
2022-09-25T08:41:58.565Z,24.43
2022-09-25T08:44:52.559Z,24.77
2022-09-25T08:47:48.058Z,25.60
2022-09-25T08:50:23.697Z,24.53
2022-09-25T08:52:55.130Z,25.80
2022-09-25T08:55:49.398Z,26.93
2022-09-25T08:58:29.785Z,24.85
2022-09-25T09:01:05.450Z,26.52
2022-09-25T09:03:36.583Z,29.40
2022-09-25T09:06:07.718Z,26.43
2022-09-25T09:08:37.751Z,23.23
2022-09-25T09:11:04.602Z,25.13
2022-09-25T09:13:44.271Z,23.57
2022-09-25T09:16:23.206Z,21.42
2022-09-25T09:18:50.517Z,23.92
2022-09-25T09:21:38.957Z,25.63
2022-09-25T09:24:24.188Z,19.27
2022-09-25T09:27:25.796Z,21.67
2022-09-25T09:30:24.416Z,23.10
2022-09-25T09:33:14.093Z,22.83
2022-09-25T09:36:02.398Z,22.30
2022-09-25T09:38:48.601Z,23.17
2022-09-25T09:41:40.398Z,20.85
2022-09-25T09:44:19.376Z,18.05
2022-09-25T09:47:08.144Z,19.15
2022-09-25T09:49:44.791Z,18.88
2022-09-25T09:52:11.814Z,80.73
2022-09-25T09:54:55.378Z,33.47
2022-09-25T09:57:25.668Z,111.57
2022-09-25T10:00:17.360Z,20.00
2022-09-25T10:02:55.751Z,32.60
2022-09-25T10:05:36.725Z,16.40
2022-09-25T10:08:05.145Z,35.08
2022-09-25T10:10:40.668Z,10.95
2022-09-25T10:13:19.368Z,10.13
2022-09-25T10:16:06.187Z,21.55
2022-09-25T10:18:43.288Z,17.05
2022-09-25T10:21:18.369Z,11.43
2022-09-25T10:23:51.561Z,12.18
2022-09-25T10:26:30.671Z,13.57
2022-09-25T10:29:03.141Z,14.57
2022-09-25T10:31:40.674Z,23.30
2022-09-25T10:34:31.266Z,11.50
2022-09-25T10:36:58.498Z,14.35
2022-09-25T10:39:48.904Z,12.73
2022-09-25T10:42:32.423Z,12.05
2022-09-25T10:44:59.317Z,10.98
2022-09-25T10:47:51.133Z,9.40
2022-09-25T10:50:30.584Z,9.15
2022-09-25T10:53:03.759Z,9.35
2022-09-25T10:55:36.533Z,11.80
2022-09-25T10:58:10.767Z,9.90
2022-09-25T11:00:43.446Z,8.82
2022-09-25T11:03:21.922Z,11.82
2022-09-25T11:06:05.153Z,8.30
2022-09-25T11:08:38.004Z,9.45
2022-09-25T11:11:07.342Z,11.50
2022-09-25T11:13:48.015Z,8.57
2022-09-25T11:16:15.565Z,8.57
2022-09-25T11:19:34.983Z,8.27
2022-09-25T11:22:20.482Z,7.20
2022-09-25T11:25:05.886Z,8.27
2022-09-25T11:27:53.451Z,9.35
2022-09-25T11:30:22.656Z,7.97
2022-09-25T11:33:21.150Z,8.40
2022-09-25T11:36:32.586Z,6.30
2022-09-25T11:39:27.732Z,8.27
2022-09-25T11:42:11.867Z,8.30
2022-09-25T11:44:54.374Z,10.88
2022-09-25T11:47:37.122Z,9.43
2022-09-25T11:50:05.005Z,7.70
2022-09-25T11:53:05.075Z,8.30
2022-09-25T11:55:50.288Z,8.07
2022-09-25T11:58:35.951Z,15.52
2022-09-25T12:01:12.003Z,8.50
2022-09-25T12:03:57.036Z,6.80
2022-09-25T12:06:30.072Z,7.38
2022-09-25T12:09:18.230Z,8.05
2022-09-25T12:11:54.424Z,7.47
2022-09-25T12:14:44.135Z,8.18
2022-09-25T12:17:37.302Z,11.68
2022-09-25T12:20:17.575Z,8.02
2022-09-25T12:23:04.714Z,10.25
2022-09-25T12:25:57.117Z,8.65
2022-09-25T12:28:52.328Z,7.40
2022-09-25T12:31:39.495Z,8.23
2022-09-25T12:34:37.894Z,7.30
2022-09-25T12:37:18.698Z,8.48
2022-09-25T12:39:51.471Z,8.93
2022-09-25T12:42:24.393Z,8.05
2022-09-25T12:45:09.661Z,11.23
2022-09-25T12:47:59.769Z,8.95
2022-09-25T12:50:31.425Z,8.85
2022-09-25T12:53:02.363Z,9.43
2022-09-25T12:55:45.284Z,8.13
2022-09-25T12:58:42.829Z,7.82
2022-09-25T13:01:31.242Z,7.30
2022-09-25T13:04:04.940Z,7.78
2022-09-25T13:06:43.000Z,8.13
2022-09-25T13:09:12.824Z,6.75
2022-09-25T13:11:58.896Z,9.30
2022-09-25T13:14:44.386Z,9.70
2022-09-25T13:17:13.693Z,10.80
2022-09-25T13:19:40.598Z,7.43
2022-09-25T13:22:25.033Z,8.35
2022-09-25T13:25:02.701Z,8.00
2022-09-25T13:27:38.755Z,7.35
2022-09-25T13:30:07.100Z,8.13
2022-09-25T13:32:35.220Z,7.10
2022-09-25T13:35:19.341Z,7.15
2022-09-25T13:37:48.377Z,8.18
2022-09-25T13:40:46.103Z,8.00
2022-09-25T13:43:24.010Z,7.50
2022-09-25T13:46:23.340Z,8.45
2022-09-25T13:48:55.730Z,9.55
2022-09-25T13:51:22.638Z,12.50
2022-09-25T13:54:03.695Z,8.40
2022-09-25T13:56:33.743Z,8.15
2022-09-25T13:59:13.950Z,10.10
2022-09-25T14:01:49.175Z,10.25
2022-09-25T14:04:16.123Z,14.07
2022-09-25T14:06:48.424Z,10.02
2022-09-25T14:09:19.834Z,13.15
2022-09-25T14:12:03.229Z,16.80
2022-09-25T14:14:55.992Z,13.05
2022-09-25T14:17:27.579Z,11.35
2022-09-25T14:19:57.274Z,16.30
2022-09-25T14:22:26.970Z,14.00
2022-09-25T14:24:53.760Z,9.57
2022-09-25T14:27:26.277Z,10.48
2022-09-25T14:30:01.930Z,42.17
2022-09-25T14:32:55.078Z,38.17
2022-09-25T14:35:36.014Z,15.57
2022-09-25T14:38:37.275Z,12.23
2022-09-25T14:41:31.161Z,8.23
2022-09-25T14:44:27.323Z,11.80
2022-09-25T14:46:55.324Z,9.65
2022-09-25T14:49:40.460Z,8.10
2022-09-25T14:52:13.309Z,9.55
2022-09-25T14:54:45.044Z,9.82
2022-09-25T14:57:16.154Z,10.98
2022-09-25T14:59:50.162Z,12.95
2022-09-25T15:02:23.504Z,10.77
2022-09-25T15:04:51.104Z,15.43
2022-09-25T15:07:25.341Z,10.80
2022-09-25T15:09:56.007Z,11.55
2022-09-25T15:12:29.331Z,11.88
2022-09-25T15:14:58.914Z,10.52
2022-09-25T15:17:27.711Z,13.93
2022-09-25T15:19:56.742Z,12.95
2022-09-25T15:22:26.386Z,12.25
2022-09-25T15:24:58.440Z,15.25
2022-09-25T15:27:28.323Z,12.88
2022-09-25T15:29:56.531Z,15.70
2022-09-25T15:32:43.026Z,13.98
2022-09-25T15:35:22.100Z,14.38
2022-09-25T15:37:49.345Z,16.10
2022-09-25T15:40:23.212Z,14.82
2022-09-25T15:42:50.817Z,17.10
2022-09-25T15:45:32.872Z,14.68
2022-09-25T15:48:01.983Z,18.52
2022-09-25T15:50:29.707Z,16.52
2022-09-25T15:52:59.690Z,19.70
2022-09-25T15:55:31.162Z,17.20
2022-09-25T15:58:07.684Z,16.05
2022-09-25T16:00:53.433Z,16.40
2022-09-25T16:03:42.154Z,26.77
2022-09-25T16:06:17.204Z,29.40
2022-09-25T16:08:44.437Z,40.13
2022-09-25T16:11:26.642Z,35.13
2022-09-25T16:14:13.835Z,24.83
2022-09-25T16:16:47.509Z,19.80
2022-09-25T16:19:40.976Z,19.77
2022-09-25T16:22:23.905Z,22.83
2022-09-25T16:24:52.113Z,23.85
2022-09-25T16:27:29.292Z,31.98
2022-09-25T16:30:02.788Z,32.20
2022-09-25T16:32:32.280Z,32.90
2022-09-25T16:35:01.828Z,28.63
2022-09-25T16:37:37.508Z,27.25
2022-09-25T16:40:20.159Z,39.85
2022-09-25T16:42:47.506Z,71.05
2022-09-25T16:45:23.753Z,47.78
2022-09-25T16:47:51.705Z,37.95
2022-09-25T16:50:20.763Z,46.50
2022-09-25T16:52:48.969Z,40.17
2022-09-25T16:55:26.135Z,39.42
2022-09-25T16:57:54.449Z,41.45
2022-09-25T17:00:25.662Z,43.28
2022-09-25T17:02:53.145Z,46.97
2022-09-25T17:05:20.321Z,38.90
2022-09-25T17:07:49.095Z,39.42
2022-09-25T17:10:18.820Z,34.80
2022-09-25T17:12:53.316Z,32.88
2022-09-25T17:15:27.523Z,30.27
2022-09-25T17:17:55.940Z,31.47
2022-09-25T17:20:25.390Z,33.87
2022-09-25T17:22:53.814Z,30.67
2022-09-25T17:25:49.720Z,33.13
2022-09-25T17:28:17.204Z,42.60
2022-09-25T17:30:45.190Z,40.90
2022-09-25T17:33:21.477Z,43.33
2022-09-25T17:36:06.256Z,43.73
2022-09-25T17:38:34.199Z,49.10
2022-09-25T17:41:06.831Z,53.70
2022-09-25T17:43:34.267Z,52.90
2022-09-25T17:46:01.730Z,53.53
2022-09-25T17:48:31.028Z,55.53
2022-09-25T17:50:59.202Z,59.70
2022-09-25T17:53:29.566Z,57.23
2022-09-25T17:55:57.399Z,54.67
2022-09-25T17:58:25.699Z,60.63
2022-09-25T18:00:54.313Z,61.63
2022-09-25T18:03:21.607Z,60.40
2022-09-25T18:05:49.120Z,65.90
2022-09-25T18:08:15.887Z,75.77
2022-09-25T18:10:42.771Z,80.53
2022-09-25T18:13:14.556Z,82.80
2022-09-25T18:15:48.532Z,77.10
2022-09-25T18:18:16.077Z,77.90
2022-09-25T18:21:05.697Z,79.20
2022-09-25T18:23:35.560Z,78.20
2022-09-25T18:26:04.185Z,86.07
2022-09-25T18:28:31.377Z,81.90
2022-09-25T18:30:58.910Z,78.90
2022-09-25T18:33:26.609Z,75.93
2022-09-25T18:35:53.456Z,61.53
2022-09-25T18:38:20.192Z,62.80
2022-09-25T18:40:47.058Z,62.10
2022-09-25T18:43:13.826Z,64.83
2022-09-25T18:45:42.225Z,68.37
2022-09-25T18:48:08.979Z,61.97
2022-09-25T18:50:35.738Z,65.30
2022-09-25T18:53:02.555Z,67.90
2022-09-25T18:55:29.777Z,72.37
2022-09-25T18:57:57.281Z,72.00
2022-09-25T19:00:24.353Z,72.30
2022-09-25T19:02:51.261Z,72.17
2022-09-25T19:05:18.137Z,76.57
2022-09-25T19:07:45.204Z,70.47
2022-09-25T19:10:12.963Z,63.47
2022-09-25T19:12:39.761Z,62.83
2022-09-25T19:15:07.294Z,63.33
2022-09-25T19:17:35.815Z,73.60
2022-09-25T19:20:02.610Z,69.00
2022-09-25T19:22:29.412Z,76.37
2022-09-25T19:24:56.773Z,71.77
2022-09-25T19:27:25.692Z,62.37
2022-09-25T19:29:52.552Z,67.63
2022-09-25T19:32:19.602Z,75.07
2022-09-25T19:34:46.434Z,80.73
2022-09-25T19:37:15.190Z,83.23
2022-09-25T19:40:00.723Z,74.57
2022-09-25T19:42:33.668Z,71.07
2022-09-25T19:45:01.630Z,65.70
2022-09-25T19:47:28.704Z,56.77
2022-09-25T19:49:55.490Z,50.20
2022-09-25T19:52:22.397Z,52.63
2022-09-25T19:54:49.123Z,46.93
2022-09-25T19:57:16.256Z,47.23
2022-09-25T19:59:43.022Z,42.63
2022-09-25T20:02:10.290Z,41.73
2022-09-25T20:04:37.436Z,39.73
2022-09-25T20:07:04.181Z,39.30
2022-09-25T20:09:33.739Z,38.10
2022-09-25T20:12:03.166Z,32.27
2022-09-25T20:14:29.960Z,31.47
2022-09-25T20:16:56.833Z,29.33
2022-09-25T20:19:23.694Z,28.63
2022-09-25T20:21:52.995Z,27.67
2022-09-25T20:24:20.284Z,26.20
2022-09-25T20:26:47.837Z,27.03
2022-09-25T20:29:16.982Z,26.47
2022-09-25T20:31:45.318Z,26.97
2022-09-25T20:34:14.314Z,25.43
2022-09-25T20:36:41.070Z,30.17
2022-09-25T20:39:08.027Z,23.53
2022-09-25T20:41:34.990Z,24.67
2022-09-25T20:44:02.171Z,24.90
2022-09-25T20:46:30.041Z,23.27
2022-09-25T20:48:58.684Z,26.83
2022-09-25T20:51:28.030Z,25.63
2022-09-25T20:54:06.737Z,23.33
2022-09-25T20:56:35.476Z,26.77
2022-09-25T20:59:03.427Z,22.10
2022-09-25T21:01:34.542Z,23.43
2022-09-25T21:04:03.117Z,20.53
2022-09-25T21:06:32.952Z,27.13
2022-09-25T21:09:02.189Z,25.33
2022-09-25T21:11:31.283Z,25.40
2022-09-25T21:14:02.706Z,23.67
2022-09-25T21:16:32.819Z,25.67
2022-09-25T21:19:04.255Z,25.43
2022-09-25T21:21:33.160Z,25.13
2022-09-25T21:24:01.394Z,21.87
2022-09-25T21:26:30.040Z,25.40
2022-09-25T21:28:59.965Z,27.77
2022-09-25T21:31:43.744Z,24.07
2022-09-25T21:34:15.325Z,24.80
2022-09-25T21:36:43.564Z,30.50
2022-09-25T21:39:10.953Z,25.03
2022-09-25T21:41:38.514Z,27.23
2022-09-25T21:44:11.491Z,25.40
2022-09-25T21:46:38.686Z,24.33
2022-09-25T21:49:07.034Z,29.97
2022-09-25T21:51:39.279Z,25.70
2022-09-25T21:54:07.866Z,25.43
2022-09-25T21:56:35.063Z,27.17
2022-09-25T21:59:08.365Z,32.50
2022-09-25T22:01:38.276Z,25.77
2022-09-25T22:04:08.189Z,31.47
2022-09-25T22:06:37.538Z,27.63
2022-09-25T22:09:19.679Z,30.03
2022-09-25T22:11:47.918Z,24.50
2022-09-25T22:14:16.497Z,27.60
2022-09-25T22:16:46.331Z,25.57
2022-09-25T22:19:20.614Z,29.57
2022-09-25T22:21:50.495Z,25.13
2022-09-25T22:24:17.947Z,27.17
2022-09-25T22:26:46.244Z,26.00
2022-09-25T22:29:14.159Z,29.23
2022-09-25T22:31:44.458Z,28.13
2022-09-25T22:34:20.085Z,31.33
2022-09-25T22:36:47.574Z,31.43
2022-09-25T22:39:17.056Z,29.10
2022-09-25T22:41:44.879Z,32.80
2022-09-25T22:44:11.794Z,28.90
2022-09-25T22:46:38.602Z,26.97
2022-09-25T22:49:05.620Z,27.37
2022-09-25T22:51:32.586Z,25.17
2022-09-25T22:53:59.413Z,24.93
2022-09-25T22:56:31.089Z,28.40
2022-09-25T22:59:01.811Z,30.83
2022-09-25T23:01:31.069Z,29.33
2022-09-25T23:04:00.634Z,36.67
2022-09-25T23:06:29.544Z,30.87
2022-09-25T23:08:59.521Z,28.07
2022-09-25T23:11:27.391Z,26.70
2022-09-25T23:14:02.593Z,25.57
2022-09-25T23:16:31.744Z,24.37
2022-09-25T23:18:59.964Z,26.33
2022-09-25T23:21:29.374Z,26.83
2022-09-25T23:23:58.228Z,25.23
2022-09-25T23:26:25.848Z,23.47
2022-09-25T23:28:53.211Z,27.60
2022-09-25T23:31:20.861Z,23.93
2022-09-25T23:33:48.348Z,23.77
2022-09-25T23:36:20.182Z,24.73
2022-09-25T23:38:48.871Z,25.40
2022-09-25T23:41:24.291Z,24.50
2022-09-25T23:43:53.657Z,25.83
2022-09-25T23:46:22.040Z,22.30
2022-09-25T23:48:48.889Z,23.80
2022-09-25T23:51:19.355Z,24.77
2022-09-25T23:53:46.842Z,22.97
2022-09-25T23:56:16.962Z,25.70
2022-09-25T23:58:44.281Z,27.53
